Ashfield, MA (01330)

12:19 AM EDT on August 31, 2015 (GMT -0400)
Bear Swamp Orchard | | Change Station
CLOSE
Current Station
Personal Weather Station
Location: Ashfield, MA
Elevation: 1572 ft
Nearby Weather Stations

Elev 1572 ft 42.55 °N, 72.83 °W | Updated 3 minutes ago

Mostly Cloudy
Mostly Cloudy
64.5 °F
Feels Like 64.5 °F
N
1.0
Wind Variable Wind from SSE
Gusts 2.0 mph

Today
High -- | Low -- °F
--% Chance of Precip.
Yesterday
High -- | Low -- °F
Precip. -- in
6:14 AM 7:27 PM
Full, 97% visible
Pressure 30.04 in
Visibility 6.0 miles
Clouds Mostly Cloudy 7000 ft
Dew Point 62 °F
Humidity 93%
Rainfall in
Snow Depth Not available.
UV 10.0 out of 12
Pollen 10.00 out of 12
Air Quality Not available.
Flu Activity Not available.
METAR KAQW 310352Z AUTO 00000KT 6SM BR BKN070 18/17 A3004 RMK AO2 SLP172 T01780167
Pressure 30.04 in
Visibility 6.0 miles
Clouds Mostly Cloudy 7000 ft
Dew Point 62 °F
Humidity 93%
Rainfall in
Snow Depth Not available.
UV 10.0 out of 12
Pollen 10.00 out of 12
Air Quality Not available.
Flu Activity Not available.
METAR KAQW 310352Z AUTO 00000KT 6SM BR BKN070 18/17 A3004 RMK AO2 SLP172 T01780167

10-Day Weather Forecast

×

Almanac

Astronomy

Aug. 31, 2015 Rise Set
Actual Time
Civil Twilight
Nautical Twilight
Astronomical Twilight
Moon
Length of Visible Light
Length of Day
Tomorrow will be .
, % of the Moon is Illuminated

Today's Extremes

State Highs State Lows

Community

WunderPhotos

Upload Photos

1,851,203 photos uploaded!

WunderBlogs® & News

Nearby

Air Quality

  Air Quality AQ Index Pollutant
Not available.

Snow Depth

Station Depth Elevation

Earthquake Activity

City Distance Mag. Time & Date
Minimum magnitude displayed is 2.5.

Coastal Water Temperatures

Place Temperature

Stations

Nearby Weather Stations

Station Location Temp. Windchill Dew Point Humidity Wind Precip. Elev Updated Type